createdAt,value
2023-03-05T00:04:25.917Z,1.37
2023-03-05T00:09:27.915Z,1.50
2023-03-05T00:14:29.803Z,1.63
2023-03-05T00:19:31.684Z,3.37
2023-03-05T00:24:33.674Z,2.80
2023-03-05T00:29:35.643Z,1.83
2023-03-05T00:34:37.562Z,2.60
2023-03-05T00:39:39.726Z,1.70
2023-03-05T00:44:41.696Z,1.63
2023-03-05T00:49:43.611Z,2.13
2023-03-05T00:54:45.568Z,1.43
2023-03-05T00:59:47.512Z,2.43
2023-03-05T01:04:49.522Z,1.27
2023-03-05T01:09:51.433Z,1.67
2023-03-05T01:14:53.363Z,2.30
2023-03-05T01:19:55.266Z,1.83
2023-03-05T01:24:57.140Z,3.07
2023-03-05T01:29:59.057Z,2.37
2023-03-05T01:35:01.788Z,2.77
2023-03-05T01:40:05.375Z,2.10
2023-03-05T01:45:12.669Z,1.83
2023-03-05T01:50:17.256Z,2.33
2023-03-05T01:55:21.588Z,1.88
2023-03-05T02:00:27.091Z,3.15
2023-03-05T02:05:34.244Z,1.95
2023-03-05T02:10:59.321Z,2.15
2023-03-05T02:16:01.448Z,3.38
2023-03-05T02:21:10.450Z,4.40
2023-03-05T02:26:12.295Z,2.97
2023-03-05T02:31:16.584Z,4.17
2023-03-05T02:36:18.794Z,3.33
2023-03-05T02:41:20.688Z,3.42
2023-03-05T02:46:22.986Z,3.10
2023-03-05T02:51:25.025Z,2.25
2023-03-05T02:56:27.179Z,2.10
2023-03-05T03:01:29.126Z,2.65
2023-03-05T03:06:31.206Z,2.78
2023-03-05T03:11:33.144Z,3.00
2023-03-05T03:16:35.078Z,2.47
2023-03-05T03:21:37.126Z,1.60
2023-03-05T03:26:39.044Z,2.63
2023-03-05T03:31:40.951Z,1.97
2023-03-05T03:36:43.926Z,1.50
2023-03-05T03:41:49.805Z,3.13
2023-03-05T03:46:51.752Z,1.60
2023-03-05T03:51:53.925Z,2.97
2023-03-05T03:56:55.899Z,2.53
2023-03-05T04:01:57.860Z,3.90
2023-03-05T04:06:59.756Z,4.05
2023-03-05T04:12:01.671Z,2.70
2023-03-05T04:17:03.700Z,2.08
2023-03-05T04:22:06.799Z,2.20
2023-03-05T04:27:08.735Z,2.28
2023-03-05T04:32:10.762Z,1.40
2023-03-05T04:37:12.759Z,2.33
2023-03-05T04:42:14.711Z,1.03
2023-03-05T04:47:17.117Z,1.70
2023-03-05T04:52:19.097Z,2.00
2023-03-05T04:57:22.675Z,2.97
2023-03-05T05:02:25.249Z,1.92
2023-03-05T05:07:27.216Z,1.77
2023-03-05T05:12:29.914Z,1.50
2023-03-05T05:17:31.911Z,2.90
2023-03-05T05:22:34.146Z,1.70
2023-03-05T05:27:36.512Z,3.10
2023-03-05T05:32:38.498Z,2.25
2023-03-05T05:37:40.429Z,1.42
2023-03-05T05:42:42.364Z,1.67
2023-03-05T05:47:44.254Z,3.85
2023-03-05T05:52:46.194Z,1.63
2023-03-05T05:57:48.139Z,1.43
2023-03-05T06:02:50.148Z,2.42
2023-03-05T06:07:52.019Z,2.90
2023-03-05T06:12:53.909Z,3.37
2023-03-05T06:17:55.769Z,3.70
2023-03-05T06:22:57.627Z,2.20
2023-03-05T06:27:59.587Z,2.50
2023-03-05T06:33:01.557Z,2.90
2023-03-05T06:38:03.568Z,3.90
2023-03-05T06:43:05.493Z,4.03
2023-03-05T06:48:07.516Z,2.80
2023-03-05T06:53:09.397Z,2.63
2023-03-05T06:58:11.511Z,4.22
2023-03-05T07:03:13.447Z,4.22
2023-03-05T07:08:15.563Z,2.20
2023-03-05T07:13:17.398Z,4.50
2023-03-05T07:18:19.343Z,4.83
2023-03-05T07:23:21.382Z,5.47
2023-03-05T07:28:23.520Z,3.13
2023-03-05T07:33:26.474Z,6.93
2023-03-05T07:38:28.772Z,10.13
2023-03-05T07:43:30.834Z,5.43
2023-03-05T07:48:32.806Z,4.97
2023-03-05T07:53:34.846Z,4.90
2023-03-05T07:58:37.034Z,4.07
2023-03-05T08:03:39.013Z,5.20
2023-03-05T08:08:40.922Z,2.83
2023-03-05T08:13:43.507Z,8.93
2023-03-05T08:18:45.652Z,5.00
2023-03-05T08:23:47.607Z,3.83
2023-03-05T08:28:49.576Z,4.73
2023-03-05T08:33:53.667Z,4.57
2023-03-05T08:38:55.678Z,4.00
2023-03-05T08:43:57.691Z,5.47
2023-03-05T08:48:59.628Z,5.80
2023-03-05T08:54:01.592Z,5.67
2023-03-05T08:59:03.709Z,4.47
2023-03-05T09:04:05.743Z,5.00
2023-03-05T09:09:08.349Z,5.83
2023-03-05T09:19:12.059Z,8.45
2023-03-05T09:24:14.014Z,7.37
2023-03-05T09:29:16.067Z,5.57
2023-03-05T09:34:17.996Z,5.68
2023-03-05T09:39:19.986Z,7.07
2023-03-05T09:44:33.874Z,5.00
2023-03-05T09:50:12.862Z,4.97
2023-03-05T09:55:26.074Z,10.35
2023-03-05T10:06:06.263Z,8.43
2023-03-05T10:11:11.034Z,6.15
2023-03-05T10:16:38.536Z,6.18
2023-03-05T10:22:05.006Z,6.35
2023-03-05T10:27:19.421Z,8.60
2023-03-05T10:32:39.188Z,5.53
2023-03-05T10:38:14.040Z,7.32
2023-03-05T10:43:21.163Z,9.55
2023-03-05T10:48:49.741Z,7.47
2023-03-05T10:54:31.137Z,7.13
2023-03-05T10:59:32.976Z,6.95
2023-03-05T11:04:36.946Z,7.13
2023-03-05T11:09:38.998Z,9.30
2023-03-05T11:15:05.498Z,7.50
2023-03-05T11:20:28.539Z,7.18
2023-03-05T11:25:30.772Z,7.47
2023-03-05T11:30:36.519Z,8.73
2023-03-05T11:35:40.077Z,8.43
2023-03-05T11:40:42.000Z,8.05
2023-03-05T11:45:44.168Z,6.40
2023-03-05T11:50:48.929Z,8.68
2023-03-05T11:56:02.145Z,7.68
2023-03-05T12:06:38.585Z,10.15
2023-03-05T12:11:40.821Z,6.35
2023-03-05T12:17:05.082Z,8.55
2023-03-05T12:22:18.071Z,9.13
2023-03-05T12:27:36.168Z,6.40
2023-03-05T12:32:43.864Z,7.85
2023-03-05T12:37:45.736Z,7.07
2023-03-05T12:43:03.749Z,7.23
2023-03-05T12:48:05.610Z,5.25
2023-03-05T12:53:07.384Z,4.50
2023-03-05T12:58:19.717Z,5.73
2023-03-05T13:03:33.995Z,6.37
2023-03-05T13:08:36.207Z,9.75
2023-03-05T13:13:41.703Z,7.70
2023-03-05T13:18:45.653Z,11.35
2023-03-05T13:23:49.473Z,9.05
2023-03-05T13:29:21.236Z,4.82
2023-03-05T13:34:40.993Z,5.03
2023-03-05T13:39:57.077Z,4.88
2023-03-05T13:45:00.344Z,5.43
2023-03-05T13:50:04.556Z,5.18
2023-03-05T13:55:13.105Z,6.00
2023-03-05T14:00:36.802Z,5.68
2023-03-05T14:05:43.577Z,7.65
2023-03-05T14:10:45.510Z,5.60
2023-03-05T14:16:03.764Z,8.80
2023-03-05T14:21:12.149Z,7.30
2023-03-05T14:26:35.972Z,7.22
2023-03-05T14:32:04.365Z,9.93
2023-03-05T14:37:34.056Z,5.53
2023-03-05T14:42:39.004Z,9.18
2023-03-05T14:47:41.455Z,5.40
2023-03-05T14:52:43.407Z,4.63
2023-03-05T14:57:45.299Z,5.30
2023-03-05T15:02:47.320Z,7.23
2023-03-05T15:07:50.225Z,4.30
2023-03-05T15:12:52.162Z,6.60
2023-03-05T15:17:54.043Z,5.50
2023-03-05T15:22:56.044Z,7.90
2023-03-05T15:27:57.914Z,7.10
2023-03-05T15:33:10.759Z,4.70
2023-03-05T15:38:12.699Z,6.53
2023-03-05T15:43:14.763Z,8.00
2023-03-05T15:48:16.684Z,10.10
2023-03-05T15:53:18.595Z,6.20
2023-03-05T15:58:20.584Z,8.23
2023-03-05T16:03:22.576Z,9.20
2023-03-05T16:08:24.541Z,16.57
2023-03-05T16:13:26.334Z,9.17
2023-03-05T16:18:28.262Z,7.50
2023-03-05T16:23:30.226Z,5.90
2023-03-05T16:28:32.070Z,10.93
2023-03-05T16:33:33.953Z,5.37
2023-03-05T16:38:35.900Z,8.03
2023-03-05T16:43:37.816Z,5.33
2023-03-05T16:48:39.661Z,8.13
2023-03-05T16:53:41.839Z,8.63
2023-03-05T16:58:43.856Z,7.95
2023-03-05T17:03:46.858Z,5.67
2023-03-05T17:08:49.118Z,9.00
2023-03-05T17:13:50.983Z,11.20
2023-03-05T17:18:53.048Z,8.17
2023-03-05T17:23:55.011Z,7.68
2023-03-05T17:28:56.894Z,8.53
2023-03-05T17:33:58.830Z,5.63
2023-03-05T17:39:00.767Z,6.40
2023-03-05T17:44:02.742Z,9.67
2023-03-05T17:49:04.788Z,8.30
2023-03-05T17:54:06.728Z,9.67
2023-03-05T17:59:08.657Z,11.30
2023-03-05T18:04:10.638Z,14.40
2023-03-05T18:09:12.711Z,11.32
2023-03-05T18:14:16.837Z,9.15
2023-03-05T18:19:19.050Z,9.77
2023-03-05T18:24:21.089Z,10.83
2023-03-05T18:29:23.125Z,10.60
2023-03-05T18:34:25.172Z,12.32
2023-03-05T18:39:27.831Z,9.80
2023-03-05T18:49:31.595Z,15.32
2023-03-05T18:54:33.551Z,15.70
2023-03-05T18:59:35.447Z,11.27
2023-03-05T19:04:37.413Z,12.23
2023-03-05T19:09:50.942Z,8.13
2023-03-05T19:14:52.873Z,16.60
2023-03-05T19:19:55.479Z,12.17
2023-03-05T19:29:59.218Z,17.45
2023-03-05T19:35:01.295Z,13.93
2023-03-05T19:40:04.525Z,16.00
2023-03-05T19:45:07.284Z,15.70
2023-03-05T19:55:11.133Z,16.50
2023-03-05T20:00:13.638Z,14.27
2023-03-05T20:10:17.538Z,18.35
2023-03-05T20:15:19.835Z,18.08
2023-03-05T20:20:21.773Z,14.65
2023-03-05T20:25:23.774Z,16.57
2023-03-05T20:30:25.816Z,13.52
2023-03-05T20:35:27.862Z,11.47
2023-03-05T20:40:29.791Z,12.18
2023-03-05T20:45:33.828Z,12.20
2023-03-05T20:50:35.991Z,15.30
2023-03-05T20:55:37.937Z,12.40
2023-03-05T21:00:40.126Z,13.67
2023-03-05T21:05:42.092Z,15.10
2023-03-05T21:10:44.033Z,13.57
2023-03-05T21:15:46.047Z,9.17
2023-03-05T21:20:47.961Z,10.15
2023-03-05T21:25:50.033Z,12.73
2023-03-05T21:30:53.272Z,9.55
2023-03-05T21:35:55.409Z,17.77
2023-03-05T21:40:58.068Z,14.98
2023-03-05T21:51:07.096Z,12.38
2023-03-05T21:56:10.168Z,12.07
2023-03-05T22:01:12.388Z,11.55
2023-03-05T22:06:14.849Z,10.52
2023-03-05T22:11:17.716Z,9.88
2023-03-05T22:16:23.855Z,11.90
2023-03-05T22:21:26.612Z,13.68
2023-03-05T22:31:36.966Z,12.68
2023-03-05T22:36:38.905Z,12.73
2023-03-05T22:41:41.564Z,6.37
2023-03-05T22:51:45.336Z,10.90
2023-03-05T22:56:47.391Z,10.85
2023-03-05T23:01:49.797Z,8.90
2023-03-05T23:06:51.695Z,7.93
2023-03-05T23:11:53.638Z,6.80
2023-03-05T23:16:55.542Z,5.87
2023-03-05T23:21:57.408Z,7.03
2023-03-05T23:26:59.821Z,3.90
2023-03-05T23:32:01.811Z,5.88
2023-03-05T23:37:03.931Z,6.95
2023-03-05T23:42:06.005Z,4.63
2023-03-05T23:47:07.965Z,4.50
2023-03-05T23:52:09.834Z,4.70
2023-03-05T23:57:11.795Z,6.17
